sensor_id;sensor_type;location;lat;lon;timestamp;P1;durP1;ratioP1;P2;durP2;ratioP2
67941;SDS011;54731;42.600;23.476;2023-05-07T00:01:44;5.03;;;3.27;;
67941;SDS011;54731;42.600;23.476;2023-05-07T00:04:10;4.50;;;2.80;;
67941;SDS011;54731;42.600;23.476;2023-05-07T00:06:35;5.57;;;3.00;;
67941;SDS011;54731;42.600;23.476;2023-05-07T00:09:00;5.90;;;3.00;;
67941;SDS011;54731;42.600;23.476;2023-05-07T00:11:26;4.63;;;2.77;;
67941;SDS011;54731;42.600;23.476;2023-05-07T00:13:52;3.20;;;2.70;;
67941;SDS011;54731;42.600;23.476;2023-05-07T00:16:18;6.35;;;2.80;;
67941;SDS011;54731;42.600;23.476;2023-05-07T00:18:43;5.37;;;3.00;;
67941;SDS011;54731;42.600;23.476;2023-05-07T00:21:09;5.43;;;3.27;;
67941;SDS011;54731;42.600;23.476;2023-05-07T00:23:34;5.10;;;3.00;;
67941;SDS011;54731;42.600;23.476;2023-05-07T00:25:59;5.37;;;3.03;;
67941;SDS011;54731;42.600;23.476;2023-05-07T00:28:25;4.63;;;2.90;;
67941;SDS011;54731;42.600;23.476;2023-05-07T00:30:50;4.50;;;3.20;;
67941;SDS011;54731;42.600;23.476;2023-05-07T00:33:15;4.67;;;2.73;;
67941;SDS011;54731;42.600;23.476;2023-05-07T00:35:41;4.97;;;2.80;;
67941;SDS011;54731;42.600;23.476;2023-05-07T00:38:07;4.53;;;2.83;;
67941;SDS011;54731;42.600;23.476;2023-05-07T00:40:32;6.13;;;3.10;;
67941;SDS011;54731;42.600;23.476;2023-05-07T00:42:58;4.20;;;2.83;;
67941;SDS011;54731;42.600;23.476;2023-05-07T00:45:26;4.13;;;2.80;;
67941;SDS011;54731;42.600;23.476;2023-05-07T00:47:57;5.47;;;3.03;;
67941;SDS011;54731;42.600;23.476;2023-05-07T00:50:24;4.82;;;2.80;;
67941;SDS011;54731;42.600;23.476;2023-05-07T00:52:50;5.88;;;3.00;;
67941;SDS011;54731;42.600;23.476;2023-05-07T00:55:16;4.60;;;3.13;;
67941;SDS011;54731;42.600;23.476;2023-05-07T00:57:42;5.07;;;3.20;;
67941;SDS011;54731;42.600;23.476;2023-05-07T01:00:07;3.93;;;2.87;;
67941;SDS011;54731;42.600;23.476;2023-05-07T01:02:40;5.50;;;3.25;;
67941;SDS011;54731;42.600;23.476;2023-05-07T01:05:07;6.22;;;3.40;;
67941;SDS011;54731;42.600;23.476;2023-05-07T01:07:35;6.38;;;3.60;;
67941;SDS011;54731;42.600;23.476;2023-05-07T01:10:02;7.57;;;3.80;;
67941;SDS011;54731;42.600;23.476;2023-05-07T01:12:29;7.90;;;4.95;;
67941;SDS011;54731;42.600;23.476;2023-05-07T01:14:55;9.27;;;4.75;;
67941;SDS011;54731;42.600;23.476;2023-05-07T01:17:21;10.30;;;4.90;;
67941;SDS011;54731;42.600;23.476;2023-05-07T01:19:46;9.33;;;4.87;;
67941;SDS011;54731;42.600;23.476;2023-05-07T01:22:12;8.53;;;5.00;;
67941;SDS011;54731;42.600;23.476;2023-05-07T01:24:39;8.48;;;5.28;;
67941;SDS011;54731;42.600;23.476;2023-05-07T01:27:05;11.67;;;5.70;;
67941;SDS011;54731;42.600;23.476;2023-05-07T01:29:30;8.27;;;5.37;;
67941;SDS011;54731;42.600;23.476;2023-05-07T01:31:56;6.70;;;5.63;;
67941;SDS011;54731;42.600;23.476;2023-05-07T01:34:24;8.30;;;5.88;;
67941;SDS011;54731;42.600;23.476;2023-05-07T01:36:51;9.93;;;6.63;;
67941;SDS011;54731;42.600;23.476;2023-05-07T01:39:19;11.20;;;6.65;;
67941;SDS011;54731;42.600;23.476;2023-05-07T01:41:44;10.65;;;7.43;;
67941;SDS011;54731;42.600;23.476;2023-05-07T01:44:11;14.33;;;7.40;;
67941;SDS011;54731;42.600;23.476;2023-05-07T01:46:37;11.07;;;7.57;;
67941;SDS011;54731;42.600;23.476;2023-05-07T01:49:02;12.93;;;8.47;;
67941;SDS011;54731;42.600;23.476;2023-05-07T01:51:28;11.88;;;8.38;;
67941;SDS011;54731;42.600;23.476;2023-05-07T01:53:54;13.97;;;8.83;;
67941;SDS011;54731;42.600;23.476;2023-05-07T01:56:19;14.03;;;8.33;;
67941;SDS011;54731;42.600;23.476;2023-05-07T01:58:45;13.60;;;9.40;;
67941;SDS011;54731;42.600;23.476;2023-05-07T02:01:11;14.48;;;8.90;;
67941;SDS011;54731;42.600;23.476;2023-05-07T02:03:37;12.10;;;9.55;;
67941;SDS011;54731;42.600;23.476;2023-05-07T02:06:02;13.60;;;10.17;;
67941;SDS011;54731;42.600;23.476;2023-05-07T02:08:28;18.27;;;10.60;;
67941;SDS011;54731;42.600;23.476;2023-05-07T02:10:53;16.40;;;11.13;;
67941;SDS011;54731;42.600;23.476;2023-05-07T02:13:18;19.52;;;11.50;;
67941;SDS011;54731;42.600;23.476;2023-05-07T02:15:44;18.43;;;11.90;;
67941;SDS011;54731;42.600;23.476;2023-05-07T02:18:09;18.90;;;13.13;;
67941;SDS011;54731;42.600;23.476;2023-05-07T02:20:34;16.77;;;13.77;;
67941;SDS011;54731;42.600;23.476;2023-05-07T02:23:00;17.97;;;12.63;;
67941;SDS011;54731;42.600;23.476;2023-05-07T02:25:25;20.27;;;12.77;;
67941;SDS011;54731;42.600;23.476;2023-05-07T02:27:51;20.60;;;13.00;;
67941;SDS011;54731;42.600;23.476;2023-05-07T02:30:16;19.43;;;13.60;;
67941;SDS011;54731;42.600;23.476;2023-05-07T02:32:42;17.87;;;12.67;;
67941;SDS011;54731;42.600;23.476;2023-05-07T02:35:07;19.67;;;13.87;;
67941;SDS011;54731;42.600;23.476;2023-05-07T02:37:33;20.95;;;13.32;;
67941;SDS011;54731;42.600;23.476;2023-05-07T02:39:58;17.17;;;12.50;;
67941;SDS011;54731;42.600;23.476;2023-05-07T02:42:23;17.63;;;13.57;;
67941;SDS011;54731;42.600;23.476;2023-05-07T02:44:49;18.30;;;12.93;;
67941;SDS011;54731;42.600;23.476;2023-05-07T02:47:14;20.23;;;13.27;;
67941;SDS011;54731;42.600;23.476;2023-05-07T02:49:40;19.75;;;11.80;;
67941;SDS011;54731;42.600;23.476;2023-05-07T02:52:05;19.03;;;12.77;;
67941;SDS011;54731;42.600;23.476;2023-05-07T02:54:31;18.98;;;13.50;;
67941;SDS011;54731;42.600;23.476;2023-05-07T02:56:56;19.27;;;13.05;;
67941;SDS011;54731;42.600;23.476;2023-05-07T02:59:21;21.23;;;13.40;;
67941;SDS011;54731;42.600;23.476;2023-05-07T03:01:47;17.70;;;12.97;;
67941;SDS011;54731;42.600;23.476;2023-05-07T03:04:12;23.13;;;13.77;;
67941;SDS011;54731;42.600;23.476;2023-05-07T03:06:37;21.97;;;14.73;;
67941;SDS011;54731;42.600;23.476;2023-05-07T03:09:02;22.43;;;13.33;;
67941;SDS011;54731;42.600;23.476;2023-05-07T03:11:28;21.53;;;14.30;;
67941;SDS011;54731;42.600;23.476;2023-05-07T03:13:53;20.77;;;13.40;;
67941;SDS011;54731;42.600;23.476;2023-05-07T03:16:19;28.13;;;14.40;;
67941;SDS011;54731;42.600;23.476;2023-05-07T03:18:44;20.45;;;12.93;;
67941;SDS011;54731;42.600;23.476;2023-05-07T03:21:09;32.10;;;17.23;;
67941;SDS011;54731;42.600;23.476;2023-05-07T03:23:34;23.87;;;13.87;;
67941;SDS011;54731;42.600;23.476;2023-05-07T03:26:00;23.63;;;14.37;;
67941;SDS011;54731;42.600;23.476;2023-05-07T03:28:25;21.73;;;14.23;;
67941;SDS011;54731;42.600;23.476;2023-05-07T03:30:50;20.37;;;12.90;;
67941;SDS011;54731;42.600;23.476;2023-05-07T03:33:16;22.37;;;14.60;;
67941;SDS011;54731;42.600;23.476;2023-05-07T03:35:41;23.87;;;14.43;;
67941;SDS011;54731;42.600;23.476;2023-05-07T03:38:06;22.20;;;14.50;;
67941;SDS011;54731;42.600;23.476;2023-05-07T03:40:32;30.98;;;14.60;;
67941;SDS011;54731;42.600;23.476;2023-05-07T03:42:57;23.73;;;13.80;;
67941;SDS011;54731;42.600;23.476;2023-05-07T03:45:22;24.67;;;15.33;;
67941;SDS011;54731;42.600;23.476;2023-05-07T03:47:48;24.07;;;15.00;;
67941;SDS011;54731;42.600;23.476;2023-05-07T03:50:13;22.50;;;14.63;;
67941;SDS011;54731;42.600;23.476;2023-05-07T03:52:38;23.23;;;14.23;;
67941;SDS011;54731;42.600;23.476;2023-05-07T03:55:04;19.77;;;14.00;;
67941;SDS011;54731;42.600;23.476;2023-05-07T03:57:29;24.05;;;13.88;;
67941;SDS011;54731;42.600;23.476;2023-05-07T03:59:54;20.43;;;13.53;;
67941;SDS011;54731;42.600;23.476;2023-05-07T04:02:20;18.53;;;12.83;;
67941;SDS011;54731;42.600;23.476;2023-05-07T04:04:45;21.67;;;13.73;;
67941;SDS011;54731;42.600;23.476;2023-05-07T04:07:10;24.30;;;13.90;;
67941;SDS011;54731;42.600;23.476;2023-05-07T04:09:36;25.97;;;13.37;;
67941;SDS011;54731;42.600;23.476;2023-05-07T04:12:01;23.73;;;13.70;;
67941;SDS011;54731;42.600;23.476;2023-05-07T04:14:26;22.23;;;13.57;;
67941;SDS011;54731;42.600;23.476;2023-05-07T04:16:51;24.73;;;13.27;;
67941;SDS011;54731;42.600;23.476;2023-05-07T04:19:17;24.90;;;14.93;;
67941;SDS011;54731;42.600;23.476;2023-05-07T04:21:42;21.23;;;13.57;;
67941;SDS011;54731;42.600;23.476;2023-05-07T04:24:08;25.92;;;13.05;;
67941;SDS011;54731;42.600;23.476;2023-05-07T04:26:33;22.95;;;12.30;;
67941;SDS011;54731;42.600;23.476;2023-05-07T04:28:58;20.87;;;12.90;;
67941;SDS011;54731;42.600;23.476;2023-05-07T04:31:24;21.77;;;12.93;;
67941;SDS011;54731;42.600;23.476;2023-05-07T04:33:49;20.27;;;12.40;;
67941;SDS011;54731;42.600;23.476;2023-05-07T04:36:14;20.67;;;12.30;;
67941;SDS011;54731;42.600;23.476;2023-05-07T04:38:40;20.40;;;11.47;;
67941;SDS011;54731;42.600;23.476;2023-05-07T04:41:06;17.13;;;10.80;;
67941;SDS011;54731;42.600;23.476;2023-05-07T04:43:31;19.92;;;11.43;;
67941;SDS011;54731;42.600;23.476;2023-05-07T04:45:57;18.77;;;11.75;;
67941;SDS011;54731;42.600;23.476;2023-05-07T04:48:22;17.07;;;11.70;;
67941;SDS011;54731;42.600;23.476;2023-05-07T04:50:48;20.87;;;11.57;;
67941;SDS011;54731;42.600;23.476;2023-05-07T04:53:14;17.30;;;11.70;;
67941;SDS011;54731;42.600;23.476;2023-05-07T04:55:40;20.63;;;12.27;;
67941;SDS011;54731;42.600;23.476;2023-05-07T04:58:05;20.73;;;12.93;;
67941;SDS011;54731;42.600;23.476;2023-05-07T05:00:30;19.20;;;11.80;;
67941;SDS011;54731;42.600;23.476;2023-05-07T05:02:56;20.98;;;10.85;;
67941;SDS011;54731;42.600;23.476;2023-05-07T05:05:21;19.30;;;12.07;;
67941;SDS011;54731;42.600;23.476;2023-05-07T05:07:46;17.03;;;11.90;;
67941;SDS011;54731;42.600;23.476;2023-05-07T05:10:12;18.73;;;11.97;;
67941;SDS011;54731;42.600;23.476;2023-05-07T05:12:37;16.37;;;11.83;;
67941;SDS011;54731;42.600;23.476;2023-05-07T05:15:03;19.27;;;12.00;;
67941;SDS011;54731;42.600;23.476;2023-05-07T05:17:29;19.15;;;12.90;;
67941;SDS011;54731;42.600;23.476;2023-05-07T05:19:54;17.97;;;11.87;;
67941;SDS011;54731;42.600;23.476;2023-05-07T05:22:20;18.13;;;12.43;;
67941;SDS011;54731;42.600;23.476;2023-05-07T05:24:45;18.73;;;12.47;;
67941;SDS011;54731;42.600;23.476;2023-05-07T05:27:10;19.42;;;12.48;;
67941;SDS011;54731;42.600;23.476;2023-05-07T05:29:36;20.48;;;12.48;;
67941;SDS011;54731;42.600;23.476;2023-05-07T05:32:01;17.67;;;11.50;;
67941;SDS011;54731;42.600;23.476;2023-05-07T05:34:26;18.40;;;12.43;;
67941;SDS011;54731;42.600;23.476;2023-05-07T05:36:51;23.87;;;13.07;;
67941;SDS011;54731;42.600;23.476;2023-05-07T05:39:17;17.63;;;12.43;;
67941;SDS011;54731;42.600;23.476;2023-05-07T05:41:42;19.77;;;12.77;;
67941;SDS011;54731;42.600;23.476;2023-05-07T05:44:07;17.43;;;12.27;;
67941;SDS011;54731;42.600;23.476;2023-05-07T05:46:33;17.70;;;12.00;;
67941;SDS011;54731;42.600;23.476;2023-05-07T05:48:58;18.80;;;13.70;;
67941;SDS011;54731;42.600;23.476;2023-05-07T05:51:23;24.40;;;13.10;;
67941;SDS011;54731;42.600;23.476;2023-05-07T05:53:49;16.98;;;11.40;;
67941;SDS011;54731;42.600;23.476;2023-05-07T05:56:14;18.70;;;11.97;;
67941;SDS011;54731;42.600;23.476;2023-05-07T05:58:40;23.30;;;12.23;;
67941;SDS011;54731;42.600;23.476;2023-05-07T06:01:06;20.77;;;11.90;;
67941;SDS011;54731;42.600;23.476;2023-05-07T06:03:31;30.83;;;12.40;;
67941;SDS011;54731;42.600;23.476;2023-05-07T06:05:57;25.00;;;12.10;;
67941;SDS011;54731;42.600;23.476;2023-05-07T06:08:22;21.67;;;10.80;;
67941;SDS011;54731;42.600;23.476;2023-05-07T06:10:47;16.27;;;11.23;;
67941;SDS011;54731;42.600;23.476;2023-05-07T06:13:13;18.30;;;13.20;;
67941;SDS011;54731;42.600;23.476;2023-05-07T06:15:38;17.67;;;12.90;;
67941;SDS011;54731;42.600;23.476;2023-05-07T06:18:03;22.33;;;13.35;;
67941;SDS011;54731;42.600;23.476;2023-05-07T06:20:28;20.00;;;12.67;;
67941;SDS011;54731;42.600;23.476;2023-05-07T06:22:54;27.47;;;13.30;;
67941;SDS011;54731;42.600;23.476;2023-05-07T06:25:19;16.10;;;11.63;;
67941;SDS011;54731;42.600;23.476;2023-05-07T06:27:44;21.27;;;12.70;;
67941;SDS011;54731;42.600;23.476;2023-05-07T06:30:10;21.67;;;12.30;;
67941;SDS011;54731;42.600;23.476;2023-05-07T06:32:36;18.55;;;12.00;;
67941;SDS011;54731;42.600;23.476;2023-05-07T06:35:01;15.55;;;11.73;;
67941;SDS011;54731;42.600;23.476;2023-05-07T06:37:27;22.23;;;11.83;;
67941;SDS011;54731;42.600;23.476;2023-05-07T06:39:52;30.73;;;12.47;;
67941;SDS011;54731;42.600;23.476;2023-05-07T06:42:17;16.17;;;11.05;;
67941;SDS011;54731;42.600;23.476;2023-05-07T06:44:42;15.53;;;11.03;;
67941;SDS011;54731;42.600;23.476;2023-05-07T06:47:08;18.43;;;11.00;;
67941;SDS011;54731;42.600;23.476;2023-05-07T06:49:33;20.90;;;10.70;;
67941;SDS011;54731;42.600;23.476;2023-05-07T06:51:58;20.83;;;11.57;;
67941;SDS011;54731;42.600;23.476;2023-05-07T06:54:24;17.60;;;11.00;;
67941;SDS011;54731;42.600;23.476;2023-05-07T06:56:49;21.97;;;11.00;;
67941;SDS011;54731;42.600;23.476;2023-05-07T06:59:14;16.13;;;10.60;;
67941;SDS011;54731;42.600;23.476;2023-05-07T07:01:40;14.77;;;10.07;;
67941;SDS011;54731;42.600;23.476;2023-05-07T07:04:05;15.73;;;10.77;;
67941;SDS011;54731;42.600;23.476;2023-05-07T07:06:31;15.33;;;10.60;;
67941;SDS011;54731;42.600;23.476;2023-05-07T07:08:56;15.10;;;10.52;;
67941;SDS011;54731;42.600;23.476;2023-05-07T07:11:22;15.30;;;10.50;;
67941;SDS011;54731;42.600;23.476;2023-05-07T07:13:47;17.47;;;11.20;;
67941;SDS011;54731;42.600;23.476;2023-05-07T07:16:13;18.40;;;10.63;;
67941;SDS011;54731;42.600;23.476;2023-05-07T07:18:38;15.63;;;9.80;;
67941;SDS011;54731;42.600;23.476;2023-05-07T07:21:03;15.98;;;10.77;;
67941;SDS011;54731;42.600;23.476;2023-05-07T07:23:29;19.60;;;10.93;;
67941;SDS011;54731;42.600;23.476;2023-05-07T07:25:54;16.17;;;9.70;;
67941;SDS011;54731;42.600;23.476;2023-05-07T07:28:20;17.10;;;10.43;;
67941;SDS011;54731;42.600;23.476;2023-05-07T07:30:46;19.90;;;10.50;;
67941;SDS011;54731;42.600;23.476;2023-05-07T07:33:11;16.47;;;10.40;;
67941;SDS011;54731;42.600;23.476;2023-05-07T07:35:36;16.70;;;10.30;;
67941;SDS011;54731;42.600;23.476;2023-05-07T07:38:02;14.33;;;10.37;;
67941;SDS011;54731;42.600;23.476;2023-05-07T07:40:27;14.47;;;9.50;;
67941;SDS011;54731;42.600;23.476;2023-05-07T07:42:52;15.47;;;10.80;;
67941;SDS011;54731;42.600;23.476;2023-05-07T07:45:18;15.80;;;9.68;;
67941;SDS011;54731;42.600;23.476;2023-05-07T07:47:44;14.73;;;9.63;;
67941;SDS011;54731;42.600;23.476;2023-05-07T07:50:09;13.63;;;9.00;;
67941;SDS011;54731;42.600;23.476;2023-05-07T07:52:34;13.50;;;8.93;;
67941;SDS011;54731;42.600;23.476;2023-05-07T07:55:00;14.40;;;10.17;;
67941;SDS011;54731;42.600;23.476;2023-05-07T07:57:25;15.13;;;9.87;;
67941;SDS011;54731;42.600;23.476;2023-05-07T07:59:51;13.03;;;9.53;;
67941;SDS011;54731;42.600;23.476;2023-05-07T08:02:16;15.50;;;10.03;;
67941;SDS011;54731;42.600;23.476;2023-05-07T08:04:42;13.07;;;9.35;;
67941;SDS011;54731;42.600;23.476;2023-05-07T08:07:07;16.07;;;9.73;;
67941;SDS011;54731;42.600;23.476;2023-05-07T08:09:33;15.87;;;9.47;;
67941;SDS011;54731;42.600;23.476;2023-05-07T08:11:58;13.40;;;9.50;;
67941;SDS011;54731;42.600;23.476;2023-05-07T08:14:23;11.93;;;8.45;;
67941;SDS011;54731;42.600;23.476;2023-05-07T08:16:49;16.63;;;9.20;;
67941;SDS011;54731;42.600;23.476;2023-05-07T08:19:14;15.40;;;8.97;;
67941;SDS011;54731;42.600;23.476;2023-05-07T08:21:39;15.33;;;8.70;;
67941;SDS011;54731;42.600;23.476;2023-05-07T08:24:05;13.30;;;9.10;;
67941;SDS011;54731;42.600;23.476;2023-05-07T08:26:30;12.55;;;8.10;;
67941;SDS011;54731;42.600;23.476;2023-05-07T08:28:56;12.25;;;8.15;;
67941;SDS011;54731;42.600;23.476;2023-05-07T08:31:21;11.53;;;9.00;;
67941;SDS011;54731;42.600;23.476;2023-05-07T08:33:46;12.73;;;8.50;;
67941;SDS011;54731;42.600;23.476;2023-05-07T08:36:12;13.27;;;8.70;;
67941;SDS011;54731;42.600;23.476;2023-05-07T08:38:37;11.13;;;8.43;;
67941;SDS011;54731;42.600;23.476;2023-05-07T08:41:03;21.80;;;9.32;;
67941;SDS011;54731;42.600;23.476;2023-05-07T08:43:28;12.40;;;8.50;;
67941;SDS011;54731;42.600;23.476;2023-05-07T08:45:57;13.73;;;8.13;;
67941;SDS011;54731;42.600;23.476;2023-05-07T08:48:26;9.55;;;7.50;;
67941;SDS011;54731;42.600;23.476;2023-05-07T08:50:54;10.70;;;7.18;;
67941;SDS011;54731;42.600;23.476;2023-05-07T08:53:19;11.97;;;7.27;;
67941;SDS011;54731;42.600;23.476;2023-05-07T08:55:45;9.63;;;7.50;;
67941;SDS011;54731;42.600;23.476;2023-05-07T08:58:11;10.27;;;6.60;;
67941;SDS011;54731;42.600;23.476;2023-05-07T09:00:36;11.85;;;6.32;;
67941;SDS011;54731;42.600;23.476;2023-05-07T09:03:02;12.50;;;6.10;;
67941;SDS011;54731;42.600;23.476;2023-05-07T09:05:28;11.13;;;5.53;;
67941;SDS011;54731;42.600;23.476;2023-05-07T09:07:53;8.65;;;6.10;;
67941;SDS011;54731;42.600;23.476;2023-05-07T09:10:19;7.90;;;5.47;;
67941;SDS011;54731;42.600;23.476;2023-05-07T09:12:46;5.87;;;5.23;;
67941;SDS011;54731;42.600;23.476;2023-05-07T09:15:12;10.30;;;4.78;;
67941;SDS011;54731;42.600;23.476;2023-05-07T09:17:37;6.77;;;4.90;;
67941;SDS011;54731;42.600;23.476;2023-05-07T09:20:05;6.90;;;4.30;;
67941;SDS011;54731;42.600;23.476;2023-05-07T09:22:32;5.78;;;3.85;;
67941;SDS011;54731;42.600;23.476;2023-05-07T09:24:57;7.95;;;4.22;;
67941;SDS011;54731;42.600;23.476;2023-05-07T09:27:23;7.40;;;4.03;;
67941;SDS011;54731;42.600;23.476;2023-05-07T09:29:48;6.33;;;4.30;;
67941;SDS011;54731;42.600;23.476;2023-05-07T09:32:13;7.03;;;4.00;;
67941;SDS011;54731;42.600;23.476;2023-05-07T09:34:39;8.27;;;3.92;;
67941;SDS011;54731;42.600;23.476;2023-05-07T09:37:06;4.50;;;3.60;;
67941;SDS011;54731;42.600;23.476;2023-05-07T09:39:46;4.90;;;3.70;;
67941;SDS011;54731;42.600;23.476;2023-05-07T09:42:13;4.18;;;3.40;;
67941;SDS011;54731;42.600;23.476;2023-05-07T09:44:39;5.63;;;3.65;;
67941;SDS011;54731;42.600;23.476;2023-05-07T09:47:05;6.40;;;3.70;;
67941;SDS011;54731;42.600;23.476;2023-05-07T09:49:33;5.60;;;3.50;;
67941;SDS011;54731;42.600;23.476;2023-05-07T09:52:00;4.00;;;2.77;;
67941;SDS011;54731;42.600;23.476;2023-05-07T09:54:26;9.57;;;3.35;;
67941;SDS011;54731;42.600;23.476;2023-05-07T09:56:52;4.68;;;3.30;;
67941;SDS011;54731;42.600;23.476;2023-05-07T09:59:18;4.32;;;3.13;;
67941;SDS011;54731;42.600;23.476;2023-05-07T10:01:46;8.80;;;3.10;;
67941;SDS011;54731;42.600;23.476;2023-05-07T10:04:11;4.07;;;2.97;;
67941;SDS011;54731;42.600;23.476;2023-05-07T10:06:37;5.63;;;3.37;;
67941;SDS011;54731;42.600;23.476;2023-05-07T10:09:03;31.05;;;4.85;;
67941;SDS011;54731;42.600;23.476;2023-05-07T10:11:30;10.32;;;3.58;;
67941;SDS011;54731;42.600;23.476;2023-05-07T10:13:57;7.83;;;2.93;;
67941;SDS011;54731;42.600;23.476;2023-05-07T10:16:22;7.35;;;3.75;;
67941;SDS011;54731;42.600;23.476;2023-05-07T10:18:48;10.50;;;4.03;;
67941;SDS011;54731;42.600;23.476;2023-05-07T10:21:18;14.13;;;3.50;;
67941;SDS011;54731;42.600;23.476;2023-05-07T10:23:49;9.43;;;3.35;;
67941;SDS011;54731;42.600;23.476;2023-05-07T10:26:17;13.50;;;7.65;;
67941;SDS011;54731;42.600;23.476;2023-05-07T10:28:45;4.18;;;3.08;;
67941;SDS011;54731;42.600;23.476;2023-05-07T10:31:17;14.47;;;5.33;;
67941;SDS011;54731;42.600;23.476;2023-05-07T10:33:43;5.90;;;3.20;;
67941;SDS011;54731;42.600;23.476;2023-05-07T10:36:11;6.15;;;3.00;;
67941;SDS011;54731;42.600;23.476;2023-05-07T10:38:36;6.17;;;2.60;;
67941;SDS011;54731;42.600;23.476;2023-05-07T10:41:02;3.63;;;2.30;;
67941;SDS011;54731;42.600;23.476;2023-05-07T10:43:37;4.38;;;2.60;;
67941;SDS011;54731;42.600;23.476;2023-05-07T10:46:19;4.97;;;2.20;;
67941;SDS011;54731;42.600;23.476;2023-05-07T10:51:26;13.27;;;2.83;;
67941;SDS011;54731;42.600;23.476;2023-05-07T10:56:39;3.35;;;2.63;;
67941;SDS011;54731;42.600;23.476;2023-05-07T11:01:55;5.47;;;2.95;;
67941;SDS011;54731;42.600;23.476;2023-05-07T11:04:21;4.03;;;2.90;;
67941;SDS011;54731;42.600;23.476;2023-05-07T11:12:18;3.55;;;2.47;;
67941;SDS011;54731;42.600;23.476;2023-05-07T11:15:05;5.17;;;2.77;;
67941;SDS011;54731;42.600;23.476;2023-05-07T11:17:32;6.13;;;2.80;;
67941;SDS011;54731;42.600;23.476;2023-05-07T11:19:57;6.68;;;2.80;;
67941;SDS011;54731;42.600;23.476;2023-05-07T11:22:41;6.07;;;2.80;;
67941;SDS011;54731;42.600;23.476;2023-05-07T11:25:06;5.07;;;3.63;;
67941;SDS011;54731;42.600;23.476;2023-05-07T11:27:32;6.77;;;3.07;;
67941;SDS011;54731;42.600;23.476;2023-05-07T11:29:58;3.92;;;3.15;;
67941;SDS011;54731;42.600;23.476;2023-05-07T11:32:27;3.90;;;2.90;;
67941;SDS011;54731;42.600;23.476;2023-05-07T11:34:54;3.97;;;3.20;;
67941;SDS011;54731;42.600;23.476;2023-05-07T11:37:20;7.72;;;3.50;;
67941;SDS011;54731;42.600;23.476;2023-05-07T11:39:47;6.10;;;3.67;;
67941;SDS011;54731;42.600;23.476;2023-05-07T11:42:25;4.32;;;3.55;;
67941;SDS011;54731;42.600;23.476;2023-05-07T11:44:57;5.80;;;4.00;;
67941;SDS011;54731;42.600;23.476;2023-05-07T11:47:22;4.73;;;3.33;;
67941;SDS011;54731;42.600;23.476;2023-05-07T11:49:48;5.68;;;3.70;;
67941;SDS011;54731;42.600;23.476;2023-05-07T11:52:16;7.73;;;4.50;;
67941;SDS011;54731;42.600;23.476;2023-05-07T11:54:55;7.47;;;4.10;;
67941;SDS011;54731;42.600;23.476;2023-05-07T11:57:24;4.25;;;3.22;;
67941;SDS011;54731;42.600;23.476;2023-05-07T11:59:53;4.18;;;3.15;;
67941;SDS011;54731;42.600;23.476;2023-05-07T12:02:22;5.32;;;3.38;;
67941;SDS011;54731;42.600;23.476;2023-05-07T12:04:48;5.37;;;4.00;;
67941;SDS011;54731;42.600;23.476;2023-05-07T12:07:13;4.93;;;3.53;;
67941;SDS011;54731;42.600;23.476;2023-05-07T12:09:40;4.90;;;3.30;;
67941;SDS011;54731;42.600;23.476;2023-05-07T12:12:06;8.27;;;3.75;;
67941;SDS011;54731;42.600;23.476;2023-05-07T12:14:31;8.33;;;3.77;;
67941;SDS011;54731;42.600;23.476;2023-05-07T12:16:57;6.63;;;3.77;;
67941;SDS011;54731;42.600;23.476;2023-05-07T12:19:22;4.35;;;3.28;;
67941;SDS011;54731;42.600;23.476;2023-05-07T12:21:48;5.70;;;3.90;;
67941;SDS011;54731;42.600;23.476;2023-05-07T12:24:16;11.30;;;4.97;;
67941;SDS011;54731;42.600;23.476;2023-05-07T12:26:41;4.40;;;4.00;;
67941;SDS011;54731;42.600;23.476;2023-05-07T12:29:08;7.35;;;3.95;;
67941;SDS011;54731;42.600;23.476;2023-05-07T12:31:33;7.77;;;4.27;;
67941;SDS011;54731;42.600;23.476;2023-05-07T12:33:59;5.47;;;4.37;;
67941;SDS011;54731;42.600;23.476;2023-05-07T12:36:24;4.93;;;4.33;;
67941;SDS011;54731;42.600;23.476;2023-05-07T12:38:49;7.83;;;4.30;;
67941;SDS011;54731;42.600;23.476;2023-05-07T12:41:15;7.57;;;4.47;;
67941;SDS011;54731;42.600;23.476;2023-05-07T12:43:43;6.22;;;4.13;;
67941;SDS011;54731;42.600;23.476;2023-05-07T12:46:09;10.60;;;4.05;;
67941;SDS011;54731;42.600;23.476;2023-05-07T12:48:38;5.90;;;4.50;;
67941;SDS011;54731;42.600;23.476;2023-05-07T12:51:03;11.20;;;4.40;;
67941;SDS011;54731;42.600;23.476;2023-05-07T12:53:30;5.60;;;4.38;;
67941;SDS011;54731;42.600;23.476;2023-05-07T12:55:56;5.07;;;4.50;;
67941;SDS011;54731;42.600;23.476;2023-05-07T12:58:27;6.90;;;4.43;;
67941;SDS011;54731;42.600;23.476;2023-05-07T13:00:58;6.83;;;4.50;;
67941;SDS011;54731;42.600;23.476;2023-05-07T13:03:26;4.90;;;4.40;;
67941;SDS011;54731;42.600;23.476;2023-05-07T13:05:52;4.80;;;4.00;;
67941;SDS011;54731;42.600;23.476;2023-05-07T13:08:29;6.47;;;4.15;;
67941;SDS011;54731;42.600;23.476;2023-05-07T13:10:57;6.13;;;4.00;;
67941;SDS011;54731;42.600;23.476;2023-05-07T13:13:24;11.33;;;4.63;;
67941;SDS011;54731;42.600;23.476;2023-05-07T13:15:49;6.90;;;4.07;;
67941;SDS011;54731;42.600;23.476;2023-05-07T13:18:14;5.60;;;4.35;;
67941;SDS011;54731;42.600;23.476;2023-05-07T13:20:40;4.73;;;3.70;;
67941;SDS011;54731;42.600;23.476;2023-05-07T13:23:05;7.30;;;4.20;;
67941;SDS011;54731;42.600;23.476;2023-05-07T13:25:30;7.10;;;4.50;;
67941;SDS011;54731;42.600;23.476;2023-05-07T13:27:58;5.67;;;4.13;;
67941;SDS011;54731;42.600;23.476;2023-05-07T13:30:24;7.05;;;4.40;;
67941;SDS011;54731;42.600;23.476;2023-05-07T13:32:49;6.93;;;4.30;;
67941;SDS011;54731;42.600;23.476;2023-05-07T13:35:15;5.20;;;3.73;;
67941;SDS011;54731;42.600;23.476;2023-05-07T13:37:41;5.30;;;4.80;;
67941;SDS011;54731;42.600;23.476;2023-05-07T13:40:06;7.23;;;4.73;;
67941;SDS011;54731;42.600;23.476;2023-05-07T13:42:32;6.60;;;4.30;;
67941;SDS011;54731;42.600;23.476;2023-05-07T13:44:57;6.40;;;4.77;;
67941;SDS011;54731;42.600;23.476;2023-05-07T13:47:22;7.03;;;4.73;;
67941;SDS011;54731;42.600;23.476;2023-05-07T13:49:48;6.87;;;4.30;;
67941;SDS011;54731;42.600;23.476;2023-05-07T13:52:13;12.83;;;4.80;;
67941;SDS011;54731;42.600;23.476;2023-05-07T13:54:38;5.43;;;4.63;;
67941;SDS011;54731;42.600;23.476;2023-05-07T13:57:04;4.73;;;4.27;;
67941;SDS011;54731;42.600;23.476;2023-05-07T13:59:29;5.07;;;4.13;;
67941;SDS011;54731;42.600;23.476;2023-05-07T14:01:54;5.47;;;3.73;;
67941;SDS011;54731;42.600;23.476;2023-05-07T14:04:19;5.70;;;3.70;;
67941;SDS011;54731;42.600;23.476;2023-05-07T14:06:45;10.25;;;4.38;;
67941;SDS011;54731;42.600;23.476;2023-05-07T14:09:10;4.20;;;3.80;;
67941;SDS011;54731;42.600;23.476;2023-05-07T14:11:35;6.33;;;4.00;;
67941;SDS011;54731;42.600;23.476;2023-05-07T14:14:01;8.50;;;4.10;;
67941;SDS011;54731;42.600;23.476;2023-05-07T14:16:26;5.80;;;3.67;;
67941;SDS011;54731;42.600;23.476;2023-05-07T14:18:51;6.93;;;4.00;;
67941;SDS011;54731;42.600;23.476;2023-05-07T14:21:16;5.00;;;4.30;;
67941;SDS011;54731;42.600;23.476;2023-05-07T14:23:42;6.40;;;4.00;;
67941;SDS011;54731;42.600;23.476;2023-05-07T14:26:07;4.93;;;4.23;;
67941;SDS011;54731;42.600;23.476;2023-05-07T14:28:32;7.07;;;4.07;;